Norwegian Sky — C6PZ8 — position and weather

sailwx.info

Track history (hours):
 
Tides and Currents Weather Stations Pressure Air Temp Water Temp Dewpoint Dewpoint Depression Visibility Wind Speed Wind Dir Waves Ship Positions

Norwegian Sky (Norway)

Operator: Norwegian Cruise Line

Last reported at 2017-Sep-20 01:00 UTC. Time now 2017-Sep-21 01:30 UTC.
Position N 23°06' W 082°18'.

Length 258 m; draft 8.2 m.

Type: Ship. MMSI: 308865000.

Wind from 050 at 6 knots

Barometer 1014.0 mb
Air temperature 27.0 ° C
Dewpoint 24.3 ° C
Water temperature 29.0 ° C

Date/timePositionNaut miles runAvg speedWind from/ knotsBaromVisibWave heightAir tempDewpointWater temp
2017-Sep-20 01:00N 23°06' W 082°18'26733.3 050 / 61014.0 27.024.329.0
2017-Sep-19 17:00N 26°00' W 078°36'82 4.6 360 / 81014.0 28.025.329.0
2017-Sep-18 23:09N 25°19' W 079°55'317.8
2017-Sep-18 22:57N 25°22' W 079°56'919.2
2017-Sep-18 22:30N 25°30' W 079°59'1019.7
2017-Sep-18 22:00N 25°40' W 080°02'713.4
2017-Sep-18 21:31N 25°46' W 080°05'4 7.7
2017-Sep-18 20:59N 25°46' W 080°10'0 0.0
2017-Sep-18 20:29N 25°46' W 080°10'0 0.0
2017-Sep-18 19:59N 25°46' W 080°10'0 0.0
2017-Sep-18 19:29N 25°46' W 080°10'0 0.0
2017-Sep-18 18:59N 25°46' W 080°10'0 0.0
2017-Sep-18 18:28N 25°46' W 080°10'0 0.0
2017-Sep-18 17:58N 25°46' W 080°10'0 0.0
2017-Sep-18 17:28N 25°46' W 080°10'0 0.0
2017-Sep-18 16:58N 25°46' W 080°10'0 0.0
2017-Sep-18 16:30N 25°46' W 080°10'0 0.0
2017-Sep-18 16:00N 25°46' W 080°10'0 0.0
2017-Sep-18 15:30N 25°46' W 080°10'0 0.0
2017-Sep-18 14:57N 25°46' W 080°10'0 0.0
2017-Sep-18 14:30N 25°46' W 080°10'0 0.0
2017-Sep-18 13:59N 25°46' W 080°10'0 0.0
2017-Sep-18 13:29N 25°46' W 080°10'0 0.0
2017-Sep-18 12:59N 25°46' W 080°10'0 0.0
2017-Sep-18 12:29N 25°46' W 080°10'0 0.0
2017-Sep-18 11:58N 25°46' W 080°10'0 0.0
2017-Sep-18 11:28N 25°46' W 080°10'0 0.0
2017-Sep-18 10:58N 25°46' W 080°10'0 0.0
2017-Sep-18 10:29N 25°46' W 080°10'1 1.3
2017-Sep-18 10:00N 25°47' W 080°10'1 2.3
2017-Sep-18 09:30N 25°46' W 080°09'510.6
2017-Sep-18 09:00N 25°47' W 080°03'4 8.2
2017-Sep-18 08:30N 25°48' W 079°59'4 8.6
2017-Sep-18 08:00N 25°50' W 079°55'4 7.7
2017-Sep-18 07:30N 25°53' W 079°52'3 6.6
2017-Sep-18 07:00N 25°55' W 079°49'3 6.3
2017-Sep-18 06:30N 25°55' W 079°45'4 7.1
2017-Sep-18 06:00N 25°56' W 079°42'3 7.0
2017-Sep-18 05:30N 25°58' W 079°38'4 7.0
2017-Sep-18 05:00N 25°59' W 079°35'3 7.0
2017-Sep-18 04:30N 26°01' W 079°31'93 4.0
2017-Sep-17 05:00N 26°00' W 077°48'66 5.5 360 / 221014.0 27.024.329.0
2017-Sep-16 17:00N 25°00' W 077°18'69 5.8 300 / 121014.0 29.023.529.0
2017-Sep-16 05:00N 25°54' W 078°06'7114.1 020 / 251015.0 27.024.329.0
2017-Sep-15 23:58N 26°05' W 079°24'816.6
2017-Sep-15 23:31N 26°01' W 079°31'916.7
2017-Sep-15 23:00N 25°57' W 079°40'817.0
2017-Sep-15 22:30N 25°53' W 079°48'816.9
2017-Sep-15 22:00N 25°50' W 079°56'816.3
2017-Sep-15 21:30N 25°46' W 080°04'5 9.4
2017-Sep-15 21:00N 25°46' W 080°10'0 0.4
2017-Sep-15 20:28N 25°46' W 080°10'0 0.0
2017-Sep-15 19:58N 25°46' W 080°10'0 0.0
2017-Sep-15 19:30N 25°46' W 080°10'0 0.0
2017-Sep-15 19:00N 25°46' W 080°10'0 0.0
2017-Sep-15 18:27N 25°46' W 080°10'0 0.0
2017-Sep-15 17:48N 25°46' W 080°10'0 0.0
2017-Sep-15 17:00N 25°46' W 080°10'0 0.0
2017-Sep-15 16:29N 25°46' W 080°10'0 0.0
2017-Sep-15 15:59N 25°46' W 080°10'0 0.0
2017-Sep-15 15:29N 25°46' W 080°10'0 0.0
2017-Sep-15 14:59N 25°46' W 080°10'0 0.0
2017-Sep-15 14:28N 25°46' W 080°10'0 0.0
2017-Sep-15 13:59N 25°46' W 080°10'0 0.0
2017-Sep-15 13:30N 25°46' W 080°10'0 0.0
2017-Sep-15 12:59N 25°46' W 080°10'0 0.0
2017-Sep-15 12:29N 25°46' W 080°10'0 0.0
2017-Sep-15 11:59N 25°46' W 080°10'0 0.0
2017-Sep-15 11:29N 25°46' W 080°10'0 0.0
2017-Sep-15 10:56N 25°46' W 080°10'0 0.8
2017-Sep-15 10:30N 25°47' W 080°10'0 0.8
2017-Sep-15 10:00N 25°47' W 080°10'5 9.8
2017-Sep-15 09:30N 25°46' W 080°04'3 6.7
2017-Sep-15 09:00N 25°47' W 080°01'510.7
2017-Sep-15 08:30N 25°45' W 079°55'510.7
2017-Sep-15 08:00N 25°42' W 079°50'4 8.9
2017-Sep-15 07:30N 25°40' W 079°46'5 9.1
2017-Sep-15 07:00N 25°38' W 079°41'510.0
2017-Sep-15 06:30N 25°34' W 079°38'611.1
2017-Sep-15 06:00N 25°28' W 079°37'8 1.6
2017-Sep-15 01:00N 25°36' W 079°36'80188.0 080 / 61014.010.8 28.026.728.0
2017-Sep-15 00:34N 24°17' W 079°30'116.6
2017-Sep-15 00:31N 24°16' W 079°30'98 8.5
2017-Sep-14 13:00N 22°48' W 078°42'50345.7 130 / 121013.010.8 27.025.624.0
2017-Sep-14 02:00N 20°36' W 070°00'522521.7 280 / 171013.0 27.024.329.0
2017-Sep-14 01:00N 23°00' W 079°00'55446.2 170 / 81013.010.8 28.026.725.0
2017-Sep-13 13:00N 19°48' W 069°42'21417.9 110 / 181012.010.8 27.025.625.0
2017-Sep-13 01:00N 18°42' W 066°06'51 2.6 090 / 271013.010.8 27.025.627.0
2017-Sep-12 05:29N 17°53' W 065°51'816.2
2017-Sep-12 05:00N 17°51' W 065°58'816.2
2017-Sep-12 04:30N 17°49' W 066°07'816.4
2017-Sep-12 04:00N 17°47' W 066°15'816.7
2017-Sep-12 03:30N 17°47' W 066°24'816.9
2017-Sep-12 03:00N 17°46' W 066°33'918.1
2017-Sep-12 02:30N 17°45' W 066°42'918.1
2017-Sep-12 02:00N 17°45' W 066°52'3213.3
2017-Sep-12 02:00N 17°42' W 066°54'1717.1 090 / 151013.0 27.024.329.0
2017-Sep-12 01:00N 17°42' W 067°12'22518.8 230 / 261012.010.8 28.026.724.0
2017-Sep-11 13:00N 17°12' W 071°06'20120.1 250 / 181012.010.8 28.026.725.0
2017-Sep-11 03:00N 17°00' W 074°36'3417.2 090 / 101015.0 26.024.629.0
2017-Sep-11 01:00N 17°00' W 075°12'23519.6 240 / 241010.010.8 26.023.224.0
2017-Sep-10 13:00N 17°54' W 079°12'19619.6 290 / 441007.010.8 28.025.325.0
2017-Sep-10 03:00N 18°48' W 082°30'3618.1 350 / 251005.010.8 27.025.631.0
2017-Sep-10 01:00N 19°00' W 083°06'   340 / 311004.010.8 28.025.325.0
Track history (hours):
 
Tides and Currents Weather Stations Pressure Air Temp Water Temp Dewpoint Dewpoint Depression Visibility Wind Speed Wind Dir Waves Ship Positions

Norwegian Sky (Norway)

Operator: Norwegian Cruise Line

Last reported at 2017-Sep-20 01:00 UTC. Time now 2017-Sep-21 01:30 UTC.
Position N 23°06' W 082°18'.

Length 258 m; draft 8.2 m.

Type: Ship. MMSI: 308865000.

Wind from 050 at 6 knots

Barometer 1014.0 mb
Air temperature 27.0 ° C
Dewpoint 24.3 ° C
Water temperature 29.0 ° C

Date/timePositionNaut miles runAvg speedWind from/ knotsBaromVisibWave heightAir tempDewpointWater temp
2017-Sep-20 01:00N 23°06' W 082°18'26733.3 050 / 61014.0 27.024.329.0
2017-Sep-19 17:00N 26°00' W 078°36'82 4.6 360 / 81014.0 28.025.329.0
2017-Sep-18 23:09N 25°19' W 079°55'317.8
2017-Sep-18 22:57N 25°22' W 079°56'919.2
2017-Sep-18 22:30N 25°30' W 079°59'1019.7
2017-Sep-18 22:00N 25°40' W 080°02'713.4
2017-Sep-18 21:31N 25°46' W 080°05'4 7.7
2017-Sep-18 20:59N 25°46' W 080°10'0 0.0
2017-Sep-18 20:29N 25°46' W 080°10'0 0.0
2017-Sep-18 19:59N 25°46' W 080°10'0 0.0
2017-Sep-18 19:29N 25°46' W 080°10'0 0.0
2017-Sep-18 18:59N 25°46' W 080°10'0 0.0
2017-Sep-18 18:28N 25°46' W 080°10'0 0.0
2017-Sep-18 17:58N 25°46' W 080°10'0 0.0
2017-Sep-18 17:28N 25°46' W 080°10'0 0.0
2017-Sep-18 16:58N 25°46' W 080°10'0 0.0
2017-Sep-18 16:30N 25°46' W 080°10'0 0.0
2017-Sep-18 16:00N 25°46' W 080°10'0 0.0
2017-Sep-18 15:30N 25°46' W 080°10'0 0.0
2017-Sep-18 14:57N 25°46' W 080°10'0 0.0
2017-Sep-18 14:30N 25°46' W 080°10'0 0.0
2017-Sep-18 13:59N 25°46' W 080°10'0 0.0
2017-Sep-18 13:29N 25°46' W 080°10'0 0.0
2017-Sep-18 12:59N 25°46' W 080°10'0 0.0
2017-Sep-18 12:29N 25°46' W 080°10'0 0.0
2017-Sep-18 11:58N 25°46' W 080°10'0 0.0
2017-Sep-18 11:28N 25°46' W 080°10'0 0.0
2017-Sep-18 10:58N 25°46' W 080°10'0 0.0
2017-Sep-18 10:29N 25°46' W 080°10'1 1.3
2017-Sep-18 10:00N 25°47' W 080°10'1 2.3
2017-Sep-18 09:30N 25°46' W 080°09'510.6
2017-Sep-18 09:00N 25°47' W 080°03'4 8.2
2017-Sep-18 08:30N 25°48' W 079°59'4 8.6
2017-Sep-18 08:00N 25°50' W 079°55'4 7.7
2017-Sep-18 07:30N 25°53' W 079°52'3 6.6
2017-Sep-18 07:00N 25°55' W 079°49'3 6.3
2017-Sep-18 06:30N 25°55' W 079°45'4 7.1
2017-Sep-18 06:00N 25°56' W 079°42'3 7.0
2017-Sep-18 05:30N 25°58' W 079°38'4 7.0
2017-Sep-18 05:00N 25°59' W 079°35'3 7.0
2017-Sep-18 04:30N 26°01' W 079°31'93 4.0
2017-Sep-17 05:00N 26°00' W 077°48'66 5.5 360 / 221014.0 27.024.329.0
2017-Sep-16 17:00N 25°00' W 077°18'69 5.8 300 / 121014.0 29.023.529.0
2017-Sep-16 05:00N 25°54' W 078°06'7114.1 020 / 251015.0 27.024.329.0
2017-Sep-15 23:58N 26°05' W 079°24'816.6
2017-Sep-15 23:31N 26°01' W 079°31'916.7
2017-Sep-15 23:00N 25°57' W 079°40'817.0
2017-Sep-15 22:30N 25°53' W 079°48'816.9
2017-Sep-15 22:00N 25°50' W 079°56'816.3
2017-Sep-15 21:30N 25°46' W 080°04'5 9.4
2017-Sep-15 21:00N 25°46' W 080°10'0 0.4
2017-Sep-15 20:28N 25°46' W 080°10'0 0.0
2017-Sep-15 19:58N 25°46' W 080°10'0 0.0
2017-Sep-15 19:30N 25°46' W 080°10'0 0.0
2017-Sep-15 19:00N 25°46' W 080°10'0 0.0
2017-Sep-15 18:27N 25°46' W 080°10'0 0.0
2017-Sep-15 17:48N 25°46' W 080°10'0 0.0
2017-Sep-15 17:00N 25°46' W 080°10'0 0.0
2017-Sep-15 16:29N 25°46' W 080°10'0 0.0
2017-Sep-15 15:59N 25°46' W 080°10'0 0.0
2017-Sep-15 15:29N 25°46' W 080°10'0 0.0
2017-Sep-15 14:59N 25°46' W 080°10'0 0.0
2017-Sep-15 14:28N 25°46' W 080°10'0 0.0
2017-Sep-15 13:59N 25°46' W 080°10'0 0.0
2017-Sep-15 13:30N 25°46' W 080°10'0 0.0
2017-Sep-15 12:59N 25°46' W 080°10'0 0.0
2017-Sep-15 12:29N 25°46' W 080°10'0 0.0
2017-Sep-15 11:59N 25°46' W 080°10'0 0.0
2017-Sep-15 11:29N 25°46' W 080°10'0 0.0
2017-Sep-15 10:56N 25°46' W 080°10'0 0.8
2017-Sep-15 10:30N 25°47' W 080°10'0 0.8
2017-Sep-15 10:00N 25°47' W 080°10'5 9.8
2017-Sep-15 09:30N 25°46' W 080°04'3 6.7
2017-Sep-15 09:00N 25°47' W 080°01'510.7
2017-Sep-15 08:30N 25°45' W 079°55'510.7
2017-Sep-15 08:00N 25°42' W 079°50'4 8.9
2017-Sep-15 07:30N 25°40' W 079°46'5 9.1
2017-Sep-15 07:00N 25°38' W 079°41'510.0
2017-Sep-15 06:30N 25°34' W 079°38'611.1
2017-Sep-15 06:00N 25°28' W 079°37'8 1.6
2017-Sep-15 01:00N 25°36' W 079°36'80188.0 080 / 61014.010.8 28.026.728.0
2017-Sep-15 00:34N 24°17' W 079°30'116.6
2017-Sep-15 00:31N 24°16' W 079°30'98 8.5
2017-Sep-14 13:00N 22°48' W 078°42'50345.7 130 / 121013.010.8 27.025.624.0
2017-Sep-14 02:00N 20°36' W 070°00'522521.7 280 / 171013.0 27.024.329.0
2017-Sep-14 01:00N 23°00' W 079°00'55446.2 170 / 81013.010.8 28.026.725.0
2017-Sep-13 13:00N 19°48' W 069°42'21417.9 110 / 181012.010.8 27.025.625.0
2017-Sep-13 01:00N 18°42' W 066°06'51 2.6 090 / 271013.010.8 27.025.627.0
2017-Sep-12 05:29N 17°53' W 065°51'816.2
2017-Sep-12 05:00N 17°51' W 065°58'816.2
2017-Sep-12 04:30N 17°49' W 066°07'816.4
2017-Sep-12 04:00N 17°47' W 066°15'816.7
2017-Sep-12 03:30N 17°47' W 066°24'816.9
2017-Sep-12 03:00N 17°46' W 066°33'918.1
2017-Sep-12 02:30N 17°45' W 066°42'918.1
2017-Sep-12 02:00N 17°45' W 066°52'3213.3
2017-Sep-12 02:00N 17°42' W 066°54'1717.1 090 / 151013.0 27.024.329.0
2017-Sep-12 01:00N 17°42' W 067°12'22518.8 230 / 261012.010.8 28.026.724.0
2017-Sep-11 13:00N 17°12' W 071°06'20120.1 250 / 181012.010.8 28.026.725.0
2017-Sep-11 03:00N 17°00' W 074°36'3417.2 090 / 101015.0 26.024.629.0
2017-Sep-11 01:00N 17°00' W 075°12'23519.6 240 / 241010.010.8 26.023.224.0
2017-Sep-10 13:00N 17°54' W 079°12'19619.6 290 / 441007.010.8 28.025.325.0
2017-Sep-10 03:00N 18°48' W 082°30'3618.1 350 / 251005.010.8 27.025.631.0
2017-Sep-10 01:00N 19°00' W 083°06'   340 / 311004.010.8 28.025.325.0

Dump ship's entire track history